Richard E. Waugh — WDB8734 — position and weather

sailwx.info

Track history (hours):
 
Tides and Currents Weather Stations Pressure Air Temp Water Temp Dewpoint Dewpoint Depression Visibility Wind Speed Wind Dir Waves Ship Positions

Richard E. Waugh

Owner: Ingram Barge Company LLC, Nashville, TN. More information available from US FCC via Universal Licensing System and Coast Guard Vessel Documentation Center.

Last reported at 2017-Oct-02 07:59 UTC. Time now 2017-Nov-24 11:11 UTC.
Position N 40°42' W 091°07'.
Warning: this ship's position is 53 days out of date.

Length 48 m; draft 3 m.

Type: Towing. MMSI: 366963390.

Date/timePositionNaut miles runAvg speedWind from/ knotsBaromVisibWave heightAir tempDewpointWater temp
2017-Oct-02 07:59N 40°42' W 091°07'2 5.0
2017-Oct-02 07:30N 40°44' W 091°07'3 5.6
2017-Oct-02 07:00N 40°47' W 091°06'2 3.1
2017-Oct-02 06:30N 40°48' W 091°06'2 3.8
2017-Oct-02 06:00N 40°50' W 091°05'3 5.9
2017-Oct-02 05:30N 40°52' W 091°02'1 2.0
2017-Oct-02 05:00N 40°53' W 091°01'0 0.3
2017-Oct-02 04:29N 40°53' W 091°01'0 0.0
2017-Oct-02 04:00N 40°53' W 091°01'1 1.2
2017-Oct-02 03:30N 40°54' W 091°01'3 5.1
2017-Oct-02 03:00N 40°55' W 090°58'3 5.3
2017-Oct-02 02:30N 40°58' W 090°57'3 5.3
2017-Oct-02 02:00N 41°00' W 090°57'3 6.0
2017-Oct-02 01:30N 41°03' W 090°57'3 5.8
2017-Oct-02 00:59N 41°06' W 090°57'  
Track history (hours):
 
Tides and Currents Weather Stations Pressure Air Temp Water Temp Dewpoint Dewpoint Depression Visibility Wind Speed Wind Dir Waves Ship Positions

Richard E. Waugh

Owner: Ingram Barge Company LLC, Nashville, TN. More information available from US FCC via Universal Licensing System and Coast Guard Vessel Documentation Center.

Last reported at 2017-Oct-02 07:59 UTC. Time now 2017-Nov-24 11:11 UTC.
Position N 40°42' W 091°07'.
Warning: this ship's position is 53 days out of date.

Length 48 m; draft 3 m.

Type: Towing. MMSI: 366963390.

Date/timePositionNaut miles runAvg speedWind from/ knotsBaromVisibWave heightAir tempDewpointWater temp
2017-Oct-02 07:59N 40°42' W 091°07'2 5.0
2017-Oct-02 07:30N 40°44' W 091°07'3 5.6
2017-Oct-02 07:00N 40°47' W 091°06'2 3.1
2017-Oct-02 06:30N 40°48' W 091°06'2 3.8
2017-Oct-02 06:00N 40°50' W 091°05'3 5.9
2017-Oct-02 05:30N 40°52' W 091°02'1 2.0
2017-Oct-02 05:00N 40°53' W 091°01'0 0.3
2017-Oct-02 04:29N 40°53' W 091°01'0 0.0
2017-Oct-02 04:00N 40°53' W 091°01'1 1.2
2017-Oct-02 03:30N 40°54' W 091°01'3 5.1
2017-Oct-02 03:00N 40°55' W 090°58'3 5.3
2017-Oct-02 02:30N 40°58' W 090°57'3 5.3
2017-Oct-02 02:00N 41°00' W 090°57'3 6.0
2017-Oct-02 01:30N 41°03' W 090°57'3 5.8
2017-Oct-02 00:59N 41°06' W 090°57'  

Dump ship's entire track history